sensor_id;sensor_type;location;lat;lon;timestamp;temperature;humidity
13229;DHT22;6680;53.220;10.402;2024-01-11T00:01:45;-3.90;99.90
13229;DHT22;6680;53.220;10.402;2024-01-11T00:04:14;-3.90;99.90
13229;DHT22;6680;53.220;10.402;2024-01-11T00:06:42;-4.00;99.90
13229;DHT22;6680;53.220;10.402;2024-01-11T00:09:09;-4.00;99.90
13229;DHT22;6680;53.220;10.402;2024-01-11T00:11:35;-4.00;99.90
13229;DHT22;6680;53.220;10.402;2024-01-11T00:14:02;-4.10;99.90
13229;DHT22;6680;53.220;10.402;2024-01-11T00:16:29;-4.00;99.90
13229;DHT22;6680;53.220;10.402;2024-01-11T00:18:56;-3.90;99.90
13229;DHT22;6680;53.220;10.402;2024-01-11T00:21:24;-4.00;99.90
13229;DHT22;6680;53.220;10.402;2024-01-11T00:23:51;-4.10;99.90
13229;DHT22;6680;53.220;10.402;2024-01-11T00:26:18;-4.10;99.90
13229;DHT22;6680;53.220;10.402;2024-01-11T00:28:44;-4.00;99.90
13229;DHT22;6680;53.220;10.402;2024-01-11T00:31:11;-4.00;99.90
13229;DHT22;6680;53.220;10.402;2024-01-11T00:33:39;-3.80;99.90
13229;DHT22;6680;53.220;10.402;2024-01-11T00:36:06;-3.80;99.90
13229;DHT22;6680;53.220;10.402;2024-01-11T00:38:34;-3.80;99.90
13229;DHT22;6680;53.220;10.402;2024-01-11T00:41:01;-3.90;99.90
13229;DHT22;6680;53.220;10.402;2024-01-11T00:43:27;-4.10;99.90
13229;DHT22;6680;53.220;10.402;2024-01-11T00:45:54;-4.00;99.90
13229;DHT22;6680;53.220;10.402;2024-01-11T00:48:21;-4.10;99.90
13229;DHT22;6680;53.220;10.402;2024-01-11T00:50:48;-4.00;99.90
13229;DHT22;6680;53.220;10.402;2024-01-11T00:53:14;-4.00;99.90
13229;DHT22;6680;53.220;10.402;2024-01-11T00:55:43;-4.00;99.90
13229;DHT22;6680;53.220;10.402;2024-01-11T00:58:12;-4.00;99.90
13229;DHT22;6680;53.220;10.402;2024-01-11T01:00:39;-4.10;99.90
13229;DHT22;6680;53.220;10.402;2024-01-11T01:03:06;-4.10;99.90
13229;DHT22;6680;53.220;10.402;2024-01-11T01:05:33;-4.10;99.90
13229;DHT22;6680;53.220;10.402;2024-01-11T01:07:59;-4.10;99.90
13229;DHT22;6680;53.220;10.402;2024-01-11T01:10:26;-4.20;99.90
13229;DHT22;6680;53.220;10.402;2024-01-11T01:12:54;-4.20;99.90
13229;DHT22;6680;53.220;10.402;2024-01-11T01:15:21;-4.10;99.90
13229;DHT22;6680;53.220;10.402;2024-01-11T01:17:48;-4.30;99.90
13229;DHT22;6680;53.220;10.402;2024-01-11T01:20:15;-4.20;99.90
13229;DHT22;6680;53.220;10.402;2024-01-11T01:22:42;-4.20;99.90
13229;DHT22;6680;53.220;10.402;2024-01-11T01:25:11;-4.10;99.90
13229;DHT22;6680;53.220;10.402;2024-01-11T01:27:37;-4.10;99.90
13229;DHT22;6680;53.220;10.402;2024-01-11T01:30:07;-4.10;99.90
13229;DHT22;6680;53.220;10.402;2024-01-11T01:32:34;-4.20;99.90
13229;DHT22;6680;53.220;10.402;2024-01-11T01:35:01;-4.00;99.90
13229;DHT22;6680;53.220;10.402;2024-01-11T01:37:28;-4.10;99.90
13229;DHT22;6680;53.220;10.402;2024-01-11T01:39:55;-4.20;99.90
13229;DHT22;6680;53.220;10.402;2024-01-11T01:42:22;-4.20;99.90
13229;DHT22;6680;53.220;10.402;2024-01-11T01:44:48;-4.30;99.90
13229;DHT22;6680;53.220;10.402;2024-01-11T01:47:17;-4.20;99.90
13229;DHT22;6680;53.220;10.402;2024-01-11T01:49:45;-4.20;99.90
13229;DHT22;6680;53.220;10.402;2024-01-11T01:52:14;-4.20;99.90
13229;DHT22;6680;53.220;10.402;2024-01-11T01:54:41;-4.30;99.90
13229;DHT22;6680;53.220;10.402;2024-01-11T01:57:12;-4.30;99.90
13229;DHT22;6680;53.220;10.402;2024-01-11T01:59:40;-4.80;99.90
13229;DHT22;6680;53.220;10.402;2024-01-11T02:02:09;-4.40;99.90
13229;DHT22;6680;53.220;10.402;2024-01-11T02:04:38;-4.40;99.90
13229;DHT22;6680;53.220;10.402;2024-01-11T02:07:06;-4.50;99.90
13229;DHT22;6680;53.220;10.402;2024-01-11T02:09:33;-4.40;99.90
13229;DHT22;6680;53.220;10.402;2024-01-11T02:12:01;-4.40;99.90
13229;DHT22;6680;53.220;10.402;2024-01-11T02:14:30;-4.30;99.90
13229;DHT22;6680;53.220;10.402;2024-01-11T02:16:57;-4.40;99.90
13229;DHT22;6680;53.220;10.402;2024-01-11T02:19:23;-4.50;99.90
13229;DHT22;6680;53.220;10.402;2024-01-11T02:21:53;-4.50;99.90
13229;DHT22;6680;53.220;10.402;2024-01-11T02:24:22;-4.50;99.90
13229;DHT22;6680;53.220;10.402;2024-01-11T02:26:59;-4.50;99.90
13229;DHT22;6680;53.220;10.402;2024-01-11T02:29:26;-2.50;99.90
13229;DHT22;6680;53.220;10.402;2024-01-11T02:31:53;-4.50;99.90
13229;DHT22;6680;53.220;10.402;2024-01-11T02:34:20;-4.30;99.90
13229;DHT22;6680;53.220;10.402;2024-01-11T02:36:47;-4.70;99.90
13229;DHT22;6680;53.220;10.402;2024-01-11T02:39:16;-4.70;99.90
13229;DHT22;6680;53.220;10.402;2024-01-11T02:41:45;-4.70;99.90
13229;DHT22;6680;53.220;10.402;2024-01-11T02:44:11;-4.70;99.90
13229;DHT22;6680;53.220;10.402;2024-01-11T02:46:38;-4.80;99.90
13229;DHT22;6680;53.220;10.402;2024-01-11T02:49:05;-4.80;99.90
13229;DHT22;6680;53.220;10.402;2024-01-11T02:51:32;-4.60;99.90
13229;DHT22;6680;53.220;10.402;2024-01-11T02:53:59;-4.70;99.90
13229;DHT22;6680;53.220;10.402;2024-01-11T02:56:26;-4.60;99.90
13229;DHT22;6680;53.220;10.402;2024-01-11T02:58:54;-4.60;99.90
13229;DHT22;6680;53.220;10.402;2024-01-11T03:01:21;-4.60;99.90
13229;DHT22;6680;53.220;10.402;2024-01-11T03:03:47;-4.50;99.90
13229;DHT22;6680;53.220;10.402;2024-01-11T03:06:14;-4.40;99.90
13229;DHT22;6680;53.220;10.402;2024-01-11T03:08:43;-4.50;99.90
13229;DHT22;6680;53.220;10.402;2024-01-11T03:11:10;-4.60;99.90
13229;DHT22;6680;53.220;10.402;2024-01-11T03:13:36;-4.50;99.90
13229;DHT22;6680;53.220;10.402;2024-01-11T03:16:06;-4.50;99.90
13229;DHT22;6680;53.220;10.402;2024-01-11T03:18:33;-4.50;99.90
13229;DHT22;6680;53.220;10.402;2024-01-11T03:21:00;-4.70;99.90
13229;DHT22;6680;53.220;10.402;2024-01-11T03:23:26;-4.80;99.90
13229;DHT22;6680;53.220;10.402;2024-01-11T03:25:53;-4.80;99.90
13229;DHT22;6680;53.220;10.402;2024-01-11T03:28:20;-4.70;99.90
13229;DHT22;6680;53.220;10.402;2024-01-11T03:30:47;-4.70;99.90
13229;DHT22;6680;53.220;10.402;2024-01-11T03:33:15;-4.70;99.90
13229;DHT22;6680;53.220;10.402;2024-01-11T03:35:42;-4.70;99.90
13229;DHT22;6680;53.220;10.402;2024-01-11T03:38:09;-4.60;99.90
13229;DHT22;6680;53.220;10.402;2024-01-11T03:40:36;-4.60;99.90
13229;DHT22;6680;53.220;10.402;2024-01-11T03:43:03;-4.60;99.90
13229;DHT22;6680;53.220;10.402;2024-01-11T03:45:30;-4.50;99.90
13229;DHT22;6680;53.220;10.402;2024-01-11T03:47:57;-4.40;99.90
13229;DHT22;6680;53.220;10.402;2024-01-11T03:50:25;-4.40;99.90
13229;DHT22;6680;53.220;10.402;2024-01-11T03:52:52;-4.40;99.90
13229;DHT22;6680;53.220;10.402;2024-01-11T03:55:19;-4.30;99.90
13229;DHT22;6680;53.220;10.402;2024-01-11T03:57:46;-4.40;99.90
13229;DHT22;6680;53.220;10.402;2024-01-11T04:00:13;-4.40;99.90
13229;DHT22;6680;53.220;10.402;2024-01-11T04:02:40;-4.30;99.90
13229;DHT22;6680;53.220;10.402;2024-01-11T04:05:08;-4.30;99.90
13229;DHT22;6680;53.220;10.402;2024-01-11T04:07:36;-4.30;99.90
13229;DHT22;6680;53.220;10.402;2024-01-11T04:10:03;-4.30;99.90
13229;DHT22;6680;53.220;10.402;2024-01-11T04:12:30;-4.40;99.90
13229;DHT22;6680;53.220;10.402;2024-01-11T04:14:57;-4.30;99.90
13229;DHT22;6680;53.220;10.402;2024-01-11T04:17:23;-4.30;99.90
13229;DHT22;6680;53.220;10.402;2024-01-11T04:19:50;-4.30;99.90
13229;DHT22;6680;53.220;10.402;2024-01-11T04:22:17;-4.30;99.90
13229;DHT22;6680;53.220;10.402;2024-01-11T04:24:45;-4.40;99.90
13229;DHT22;6680;53.220;10.402;2024-01-11T04:27:12;-4.10;99.90
13229;DHT22;6680;53.220;10.402;2024-01-11T04:29:39;-4.20;99.90
13229;DHT22;6680;53.220;10.402;2024-01-11T04:32:05;-4.20;99.90
13229;DHT22;6680;53.220;10.402;2024-01-11T04:34:32;-4.10;99.90
13229;DHT22;6680;53.220;10.402;2024-01-11T04:36:59;-4.10;99.90
13229;DHT22;6680;53.220;10.402;2024-01-11T04:39:26;-4.10;99.90
13229;DHT22;6680;53.220;10.402;2024-01-11T04:41:54;-4.00;99.90
13229;DHT22;6680;53.220;10.402;2024-01-11T04:44:21;-4.10;99.90
13229;DHT22;6680;53.220;10.402;2024-01-11T04:46:48;-4.00;99.90
13229;DHT22;6680;53.220;10.402;2024-01-11T04:49:15;-4.00;99.90
13229;DHT22;6680;53.220;10.402;2024-01-11T04:51:41;-4.00;99.90
13229;DHT22;6680;53.220;10.402;2024-01-11T04:54:08;-4.00;99.90
13229;DHT22;6680;53.220;10.402;2024-01-11T04:56:35;-3.50;99.90
13229;DHT22;6680;53.220;10.402;2024-01-11T04:59:03;-4.00;99.90
13229;DHT22;6680;53.220;10.402;2024-01-11T05:01:30;-4.00;99.90
13229;DHT22;6680;53.220;10.402;2024-01-11T05:03:57;-3.90;99.90
13229;DHT22;6680;53.220;10.402;2024-01-11T05:06:24;-3.90;99.90
13229;DHT22;6680;53.220;10.402;2024-01-11T05:08:51;-3.90;99.90
13229;DHT22;6680;53.220;10.402;2024-01-11T05:11:19;-3.90;99.90
13229;DHT22;6680;53.220;10.402;2024-01-11T05:13:47;-3.90;99.90
13229;DHT22;6680;53.220;10.402;2024-01-11T05:16:20;-3.80;99.90
13229;DHT22;6680;53.220;10.402;2024-01-11T05:18:48;-3.90;99.90
13229;DHT22;6680;53.220;10.402;2024-01-11T05:21:14;-4.00;99.90
13229;DHT22;6680;53.220;10.402;2024-01-11T05:23:41;-3.90;99.90
13229;DHT22;6680;53.220;10.402;2024-01-11T05:26:08;-3.90;99.90
13229;DHT22;6680;53.220;10.402;2024-01-11T05:28:35;-3.90;99.90
13229;DHT22;6680;53.220;10.402;2024-01-11T05:31:05;-3.80;99.90
13229;DHT22;6680;53.220;10.402;2024-01-11T05:33:33;-3.80;99.90
13229;DHT22;6680;53.220;10.402;2024-01-11T05:36:00;-3.90;99.90
13229;DHT22;6680;53.220;10.402;2024-01-11T05:38:28;-3.70;99.90
13229;DHT22;6680;53.220;10.402;2024-01-11T05:40:55;-3.80;99.90
13229;DHT22;6680;53.220;10.402;2024-01-11T05:43:22;-3.80;99.90
13229;DHT22;6680;53.220;10.402;2024-01-11T05:45:49;-3.80;99.90
13229;DHT22;6680;53.220;10.402;2024-01-11T05:48:16;-3.80;99.90
13229;DHT22;6680;53.220;10.402;2024-01-11T05:50:44;-3.80;99.90
13229;DHT22;6680;53.220;10.402;2024-01-11T05:53:12;-3.70;99.90
13229;DHT22;6680;53.220;10.402;2024-01-11T05:55:39;-3.70;99.90
13229;DHT22;6680;53.220;10.402;2024-01-11T05:58:06;-3.70;99.90
13229;DHT22;6680;53.220;10.402;2024-01-11T06:03:00;-3.60;99.90
13229;DHT22;6680;53.220;10.402;2024-01-11T06:05:27;-3.50;99.90
13229;DHT22;6680;53.220;10.402;2024-01-11T06:07:55;-3.60;99.90
13229;DHT22;6680;53.220;10.402;2024-01-11T06:12:49;-3.50;99.90
13229;DHT22;6680;53.220;10.402;2024-01-11T06:15:16;-3.50;99.90
13229;DHT22;6680;53.220;10.402;2024-01-11T06:17:43;-3.50;99.90
13229;DHT22;6680;53.220;10.402;2024-01-11T06:20:10;-3.40;99.90
13229;DHT22;6680;53.220;10.402;2024-01-11T06:25:06;-3.40;99.90
13229;DHT22;6680;53.220;10.402;2024-01-11T06:27:33;-3.40;99.90
13229;DHT22;6680;53.220;10.402;2024-01-11T06:30:00;-3.40;99.90
13229;DHT22;6680;53.220;10.402;2024-01-11T06:32:27;-3.30;99.90
13229;DHT22;6680;53.220;10.402;2024-01-11T06:34:54;-3.30;99.90
13229;DHT22;6680;53.220;10.402;2024-01-11T06:37:21;-3.30;99.90
13229;DHT22;6680;53.220;10.402;2024-01-11T06:39:48;-3.20;99.90
13229;DHT22;6680;53.220;10.402;2024-01-11T06:42:16;-3.20;99.90
13229;DHT22;6680;53.220;10.402;2024-01-11T06:44:43;-3.20;99.90
13229;DHT22;6680;53.220;10.402;2024-01-11T06:47:09;-3.30;99.90
13229;DHT22;6680;53.220;10.402;2024-01-11T06:49:38;-3.10;99.90
13229;DHT22;6680;53.220;10.402;2024-01-11T06:54:35;-3.00;99.90
13229;DHT22;6680;53.220;10.402;2024-01-11T06:57:02;-3.00;99.90
13229;DHT22;6680;53.220;10.402;2024-01-11T06:59:30;-3.00;99.90
13229;DHT22;6680;53.220;10.402;2024-01-11T07:01:57;-3.00;99.90
13229;DHT22;6680;53.220;10.402;2024-01-11T07:04:24;-2.90;99.90
13229;DHT22;6680;53.220;10.402;2024-01-11T07:06:51;-3.00;99.90
13229;DHT22;6680;53.220;10.402;2024-01-11T07:11:45;-2.80;99.90
13229;DHT22;6680;53.220;10.402;2024-01-11T07:14:12;-2.80;99.90
13229;DHT22;6680;53.220;10.402;2024-01-11T07:16:40;-2.80;99.90
13229;DHT22;6680;53.220;10.402;2024-01-11T07:19:07;-2.80;99.90
13229;DHT22;6680;53.220;10.402;2024-01-11T07:24:01;-2.80;99.90
13229;DHT22;6680;53.220;10.402;2024-01-11T07:26:28;-2.80;99.90
13229;DHT22;6680;53.220;10.402;2024-01-11T07:28:55;-2.60;99.90
13229;DHT22;6680;53.220;10.402;2024-01-11T07:31:22;-2.70;99.90
13229;DHT22;6680;53.220;10.402;2024-01-11T07:33:50;-2.70;99.90
13229;DHT22;6680;53.220;10.402;2024-01-11T07:36:17;-2.10;99.90
13229;DHT22;6680;53.220;10.402;2024-01-11T07:38:44;-2.60;99.90
13229;DHT22;6680;53.220;10.402;2024-01-11T07:43:38;-2.50;99.90
13229;DHT22;6680;53.220;10.402;2024-01-11T07:46:05;-2.50;99.90
13229;DHT22;6680;53.220;10.402;2024-01-11T07:48:33;-2.50;99.90
13229;DHT22;6680;53.220;10.402;2024-01-11T07:51:01;-2.50;99.90
13229;DHT22;6680;53.220;10.402;2024-01-11T07:53:30;-2.50;99.90
13229;DHT22;6680;53.220;10.402;2024-01-11T07:55:57;-2.50;99.90
13229;DHT22;6680;53.220;10.402;2024-01-11T07:58:24;-2.50;99.90
13229;DHT22;6680;53.220;10.402;2024-01-11T08:00:51;-2.30;99.90
13229;DHT22;6680;53.220;10.402;2024-01-11T08:03:19;-2.40;99.90
13229;DHT22;6680;53.220;10.402;2024-01-11T08:05:46;-2.00;99.90
13229;DHT22;6680;53.220;10.402;2024-01-11T08:08:17;-2.20;99.90
13229;DHT22;6680;53.220;10.402;2024-01-11T08:10:44;-2.30;99.90
13229;DHT22;6680;53.220;10.402;2024-01-11T08:13:11;-2.20;99.90
13229;DHT22;6680;53.220;10.402;2024-01-11T08:15:38;-2.20;99.90
13229;DHT22;6680;53.220;10.402;2024-01-11T08:18:05;-1.40;99.90
13229;DHT22;6680;53.220;10.402;2024-01-11T08:25:28;-1.80;99.90
13229;DHT22;6680;53.220;10.402;2024-01-11T08:27:55;-1.90;99.90
13229;DHT22;6680;53.220;10.402;2024-01-11T08:30:21;-2.10;99.90
13229;DHT22;6680;53.220;10.402;2024-01-11T08:35:16;-1.80;99.90
13229;DHT22;6680;53.220;10.402;2024-01-11T08:37:43;-1.80;99.90
13229;DHT22;6680;53.220;10.402;2024-01-11T08:40:10;-1.70;99.90
13229;DHT22;6680;53.220;10.402;2024-01-11T08:42:38;-1.70;99.90
13229;DHT22;6680;53.220;10.402;2024-01-11T08:45:08;-1.60;99.90
13229;DHT22;6680;53.220;10.402;2024-01-11T08:47:35;-1.60;99.90
13229;DHT22;6680;53.220;10.402;2024-01-11T08:50:04;-0.10;99.90
13229;DHT22;6680;53.220;10.402;2024-01-11T08:52:32;-1.50;99.90
13229;DHT22;6680;53.220;10.402;2024-01-11T08:54:59;-1.70;99.90
13229;DHT22;6680;53.220;10.402;2024-01-11T08:57:26;-1.30;99.90
13229;DHT22;6680;53.220;10.402;2024-01-11T08:59:54;-1.30;99.90
13229;DHT22;6680;53.220;10.402;2024-01-11T09:07:15;-1.10;99.90
13229;DHT22;6680;53.220;10.402;2024-01-11T09:12:11;-1.00;99.90
13229;DHT22;6680;53.220;10.402;2024-01-11T09:17:07;-0.90;99.90
13229;DHT22;6680;53.220;10.402;2024-01-11T09:22:03;-0.80;99.90
13229;DHT22;6680;53.220;10.402;2024-01-11T09:24:30;-0.80;99.90
13229;DHT22;6680;53.220;10.402;2024-01-11T09:29:23;-0.80;99.90
13229;DHT22;6680;53.220;10.402;2024-01-11T09:34:19;-0.80;99.90
13229;DHT22;6680;53.220;10.402;2024-01-11T09:36:46;1.10;99.90
13229;DHT22;6680;53.220;10.402;2024-01-11T09:39:12;-0.70;99.90
13229;DHT22;6680;53.220;10.402;2024-01-11T09:41:42;-0.50;99.90
13229;DHT22;6680;53.220;10.402;2024-01-11T09:44:14;-0.60;99.90
13229;DHT22;6680;53.220;10.402;2024-01-11T09:46:41;-0.50;99.90
13229;DHT22;6680;53.220;10.402;2024-01-11T09:49:08;-0.40;99.90
13229;DHT22;6680;53.220;10.402;2024-01-11T09:51:38;-0.40;99.90
13229;DHT22;6680;53.220;10.402;2024-01-11T09:54:06;-0.30;99.90
13229;DHT22;6680;53.220;10.402;2024-01-11T09:56:33;-0.40;99.90
13229;DHT22;6680;53.220;10.402;2024-01-11T09:59:01;-0.40;99.90
13229;DHT22;6680;53.220;10.402;2024-01-11T10:03:59;-0.30;99.90
13229;DHT22;6680;53.220;10.402;2024-01-11T10:06:27;1.20;99.90
13229;DHT22;6680;53.220;10.402;2024-01-11T10:08:55;-0.20;99.90
13229;DHT22;6680;53.220;10.402;2024-01-11T10:11:22;0.00;99.90
13229;DHT22;6680;53.220;10.402;2024-01-11T10:13:49;-0.10;99.90
13229;DHT22;6680;53.220;10.402;2024-01-11T10:16:22;0.60;99.90
13229;DHT22;6680;53.220;10.402;2024-01-11T10:18:49;0.10;99.90
13229;DHT22;6680;53.220;10.402;2024-01-11T10:26:17;0.30;99.90
13229;DHT22;6680;53.220;10.402;2024-01-11T10:28:45;1.80;99.90
13229;DHT22;6680;53.220;10.402;2024-01-11T10:31:12;0.30;99.90
13229;DHT22;6680;53.220;10.402;2024-01-11T10:33:40;1.30;99.90
13229;DHT22;6680;53.220;10.402;2024-01-11T10:36:07;0.40;99.90
13229;DHT22;6680;53.220;10.402;2024-01-11T10:38:36;0.50;99.90
13229;DHT22;6680;53.220;10.402;2024-01-11T10:41:06;0.40;99.90
13229;DHT22;6680;53.220;10.402;2024-01-11T10:43:37;0.40;99.90
13229;DHT22;6680;53.220;10.402;2024-01-11T10:46:05;0.40;99.90
13229;DHT22;6680;53.220;10.402;2024-01-11T10:48:35;0.40;99.90
13229;DHT22;6680;53.220;10.402;2024-01-11T10:51:05;0.40;99.90
13229;DHT22;6680;53.220;10.402;2024-01-11T10:53:41;0.40;99.90
13229;DHT22;6680;53.220;10.402;2024-01-11T10:56:10;1.70;99.90
13229;DHT22;6680;53.220;10.402;2024-01-11T10:58:41;0.50;99.90
13229;DHT22;6680;53.220;10.402;2024-01-11T11:01:08;0.50;99.90
13229;DHT22;6680;53.220;10.402;2024-01-11T11:03:37;0.50;99.90
13229;DHT22;6680;53.220;10.402;2024-01-11T11:06:05;0.50;99.90
13229;DHT22;6680;53.220;10.402;2024-01-11T11:08:33;0.50;99.90
13229;DHT22;6680;53.220;10.402;2024-01-11T11:11:01;0.60;99.90
13229;DHT22;6680;53.220;10.402;2024-01-11T11:13:29;0.60;99.90
13229;DHT22;6680;53.220;10.402;2024-01-11T11:15:57;0.60;99.90
13229;DHT22;6680;53.220;10.402;2024-01-11T11:18:24;0.60;99.90
13229;DHT22;6680;53.220;10.402;2024-01-11T11:20:52;0.60;99.90
13229;DHT22;6680;53.220;10.402;2024-01-11T11:25:48;0.60;99.90
13229;DHT22;6680;53.220;10.402;2024-01-11T11:28:16;0.60;99.90
13229;DHT22;6680;53.220;10.402;2024-01-11T11:30:44;0.70;99.90
13229;DHT22;6680;53.220;10.402;2024-01-11T11:33:20;0.40;99.90
13229;DHT22;6680;53.220;10.402;2024-01-11T11:35:48;0.70;99.90
13229;DHT22;6680;53.220;10.402;2024-01-11T11:38:18;0.70;99.90
13229;DHT22;6680;53.220;10.402;2024-01-11T11:40:46;0.70;99.90
13229;DHT22;6680;53.220;10.402;2024-01-11T11:43:16;0.70;99.90
13229;DHT22;6680;53.220;10.402;2024-01-11T11:48:49;0.80;99.90
13229;DHT22;6680;53.220;10.402;2024-01-11T11:51:17;0.80;99.90
13229;DHT22;6680;53.220;10.402;2024-01-11T11:53:46;0.70;99.90
13229;DHT22;6680;53.220;10.402;2024-01-11T11:56:13;0.70;99.90
13229;DHT22;6680;53.220;10.402;2024-01-11T11:58:43;0.70;99.90
13229;DHT22;6680;53.220;10.402;2024-01-11T12:01:11;0.80;99.90
13229;DHT22;6680;53.220;10.402;2024-01-11T12:03:40;0.80;99.90
13229;DHT22;6680;53.220;10.402;2024-01-11T12:06:10;0.80;99.90
13229;DHT22;6680;53.220;10.402;2024-01-11T12:11:05;0.90;99.90
13229;DHT22;6680;53.220;10.402;2024-01-11T12:13:33;1.60;99.90
13229;DHT22;6680;53.220;10.402;2024-01-11T12:16:01;0.90;99.90
13229;DHT22;6680;53.220;10.402;2024-01-11T12:18:29;0.90;99.90
13229;DHT22;6680;53.220;10.402;2024-01-11T12:20:56;0.60;99.90
13229;DHT22;6680;53.220;10.402;2024-01-11T12:23:24;1.00;99.90
13229;DHT22;6680;53.220;10.402;2024-01-11T12:25:51;1.10;99.90
13229;DHT22;6680;53.220;10.402;2024-01-11T12:28:18;1.10;99.90
13229;DHT22;6680;53.220;10.402;2024-01-11T12:30:45;1.10;99.90
13229;DHT22;6680;53.220;10.402;2024-01-11T12:33:12;1.60;99.90
13229;DHT22;6680;53.220;10.402;2024-01-11T12:35:39;1.20;99.90
13229;DHT22;6680;53.220;10.402;2024-01-11T12:38:06;1.10;99.90
13229;DHT22;6680;53.220;10.402;2024-01-11T12:40:36;1.20;99.90
13229;DHT22;6680;53.220;10.402;2024-01-11T12:43:04;1.20;99.90
13229;DHT22;6680;53.220;10.402;2024-01-11T12:45:31;1.20;99.90
13229;DHT22;6680;53.220;10.402;2024-01-11T12:47:59;1.30;99.90
13229;DHT22;6680;53.220;10.402;2024-01-11T12:50:26;1.30;99.90
13229;DHT22;6680;53.220;10.402;2024-01-11T12:53:07;1.30;99.90
13229;DHT22;6680;53.220;10.402;2024-01-11T12:55:35;1.30;99.90
13229;DHT22;6680;53.220;10.402;2024-01-11T12:58:06;0.60;99.90
13229;DHT22;6680;53.220;10.402;2024-01-11T13:00:34;1.20;99.90
13229;DHT22;6680;53.220;10.402;2024-01-11T13:03:02;1.20;99.90
13229;DHT22;6680;53.220;10.402;2024-01-11T13:05:29;1.50;99.90
13229;DHT22;6680;53.220;10.402;2024-01-11T13:08:00;1.30;99.90
13229;DHT22;6680;53.220;10.402;2024-01-11T13:10:28;1.30;99.90
13229;DHT22;6680;53.220;10.402;2024-01-11T13:12:58;1.30;99.90
13229;DHT22;6680;53.220;10.402;2024-01-11T13:15:26;1.30;99.90
13229;DHT22;6680;53.220;10.402;2024-01-11T13:17:54;1.30;99.90
13229;DHT22;6680;53.220;10.402;2024-01-11T13:20:21;1.30;99.90
13229;DHT22;6680;53.220;10.402;2024-01-11T13:22:49;1.40;99.90
13229;DHT22;6680;53.220;10.402;2024-01-11T13:25:16;1.30;99.90
13229;DHT22;6680;53.220;10.402;2024-01-11T13:27:43;1.30;99.90
13229;DHT22;6680;53.220;10.402;2024-01-11T13:30:14;1.40;99.90
13229;DHT22;6680;53.220;10.402;2024-01-11T13:32:42;1.40;99.90
13229;DHT22;6680;53.220;10.402;2024-01-11T13:35:09;1.40;99.90
13229;DHT22;6680;53.220;10.402;2024-01-11T13:37:35;1.40;99.90
13229;DHT22;6680;53.220;10.402;2024-01-11T13:40:02;1.40;99.90
13229;DHT22;6680;53.220;10.402;2024-01-11T13:47:27;1.40;99.90
13229;DHT22;6680;53.220;10.402;2024-01-11T13:52:21;1.30;99.90
13229;DHT22;6680;53.220;10.402;2024-01-11T13:54:47;1.30;99.90
13229;DHT22;6680;53.220;10.402;2024-01-11T13:57:14;1.40;99.90
13229;DHT22;6680;53.220;10.402;2024-01-11T13:59:42;1.40;99.90
13229;DHT22;6680;53.220;10.402;2024-01-11T14:02:08;1.40;99.90
13229;DHT22;6680;53.220;10.402;2024-01-11T14:04:36;1.40;99.90
13229;DHT22;6680;53.220;10.402;2024-01-11T14:07:04;1.40;99.90
13229;DHT22;6680;53.220;10.402;2024-01-11T14:09:31;1.40;99.90
13229;DHT22;6680;53.220;10.402;2024-01-11T14:11:58;1.10;99.90
13229;DHT22;6680;53.220;10.402;2024-01-11T14:14:25;1.50;99.90
13229;DHT22;6680;53.220;10.402;2024-01-11T14:16:52;1.40;99.90
13229;DHT22;6680;53.220;10.402;2024-01-11T14:19:18;1.50;99.90
13229;DHT22;6680;53.220;10.402;2024-01-11T14:21:46;1.50;99.90
13229;DHT22;6680;53.220;10.402;2024-01-11T14:24:12;1.50;99.90
13229;DHT22;6680;53.220;10.402;2024-01-11T14:26:39;1.50;99.90
13229;DHT22;6680;53.220;10.402;2024-01-11T14:29:06;1.60;99.90
13229;DHT22;6680;53.220;10.402;2024-01-11T14:31:34;1.60;99.90
13229;DHT22;6680;53.220;10.402;2024-01-11T14:34:01;1.50;99.90
13229;DHT22;6680;53.220;10.402;2024-01-11T14:36:28;1.50;99.90
13229;DHT22;6680;53.220;10.402;2024-01-11T14:38:56;1.50;99.90
13229;DHT22;6680;53.220;10.402;2024-01-11T14:41:23;1.50;99.90
13229;DHT22;6680;53.220;10.402;2024-01-11T14:43:49;1.50;99.90
13229;DHT22;6680;53.220;10.402;2024-01-11T14:46:16;1.50;99.90
13229;DHT22;6680;53.220;10.402;2024-01-11T14:48:43;1.70;99.90
13229;DHT22;6680;53.220;10.402;2024-01-11T14:51:10;1.50;99.90
13229;DHT22;6680;53.220;10.402;2024-01-11T14:53:37;1.40;99.90
13229;DHT22;6680;53.220;10.402;2024-01-11T14:56:05;1.40;99.90
13229;DHT22;6680;53.220;10.402;2024-01-11T14:58:32;1.40;99.90
13229;DHT22;6680;53.220;10.402;2024-01-11T15:00:59;1.20;99.90
13229;DHT22;6680;53.220;10.402;2024-01-11T15:03:25;1.30;99.90
13229;DHT22;6680;53.220;10.402;2024-01-11T15:05:53;1.30;99.90
13229;DHT22;6680;53.220;10.402;2024-01-11T15:08:19;1.40;99.90
13229;DHT22;6680;53.220;10.402;2024-01-11T15:10:46;1.40;99.90
13229;DHT22;6680;53.220;10.402;2024-01-11T15:13:14;1.40;99.90
13229;DHT22;6680;53.220;10.402;2024-01-11T15:15:41;1.40;99.90
13229;DHT22;6680;53.220;10.402;2024-01-11T15:18:08;1.30;99.90
13229;DHT22;6680;53.220;10.402;2024-01-11T15:20:35;1.30;99.90
13229;DHT22;6680;53.220;10.402;2024-01-11T15:23:02;1.40;99.90
13229;DHT22;6680;53.220;10.402;2024-01-11T15:25:30;1.30;99.90
13229;DHT22;6680;53.220;10.402;2024-01-11T15:27:57;1.40;99.90
13229;DHT22;6680;53.220;10.402;2024-01-11T15:30:25;1.50;99.90
13229;DHT22;6680;53.220;10.402;2024-01-11T15:32:52;1.40;99.90
13229;DHT22;6680;53.220;10.402;2024-01-11T15:40:14;1.40;99.90
13229;DHT22;6680;53.220;10.402;2024-01-11T15:42:40;1.40;99.90
13229;DHT22;6680;53.220;10.402;2024-01-11T15:45:08;1.40;99.90
13229;DHT22;6680;53.220;10.402;2024-01-11T15:47:37;1.40;99.90
13229;DHT22;6680;53.220;10.402;2024-01-11T15:50:05;1.30;99.90
13229;DHT22;6680;53.220;10.402;2024-01-11T15:52:36;1.30;99.90
13229;DHT22;6680;53.220;10.402;2024-01-11T15:55:03;1.30;99.90
13229;DHT22;6680;53.220;10.402;2024-01-11T15:57:30;1.40;99.90
13229;DHT22;6680;53.220;10.402;2024-01-11T15:59:57;1.30;99.90
13229;DHT22;6680;53.220;10.402;2024-01-11T16:04:52;1.30;99.90
13229;DHT22;6680;53.220;10.402;2024-01-11T16:07:19;1.30;99.90
13229;DHT22;6680;53.220;10.402;2024-01-11T16:09:46;1.30;99.90
13229;DHT22;6680;53.220;10.402;2024-01-11T16:14:43;1.30;99.90
13229;DHT22;6680;53.220;10.402;2024-01-11T16:17:11;1.30;99.90
13229;DHT22;6680;53.220;10.402;2024-01-11T16:19:38;1.20;99.90
13229;DHT22;6680;53.220;10.402;2024-01-11T16:22:06;1.20;99.90
13229;DHT22;6680;53.220;10.402;2024-01-11T16:24:33;1.30;99.90
13229;DHT22;6680;53.220;10.402;2024-01-11T16:27:00;1.30;99.90
13229;DHT22;6680;53.220;10.402;2024-01-11T16:29:27;1.30;99.90
13229;DHT22;6680;53.220;10.402;2024-01-11T16:31:54;1.30;99.90
13229;DHT22;6680;53.220;10.402;2024-01-11T16:36:48;1.40;99.90
13229;DHT22;6680;53.220;10.402;2024-01-11T16:39:16;1.30;99.90
13229;DHT22;6680;53.220;10.402;2024-01-11T16:41:43;1.30;99.90
13229;DHT22;6680;53.220;10.402;2024-01-11T16:44:13;1.20;99.90
13229;DHT22;6680;53.220;10.402;2024-01-11T16:46:39;1.40;99.90
13229;DHT22;6680;53.220;10.402;2024-01-11T16:49:06;1.30;99.90
13229;DHT22;6680;53.220;10.402;2024-01-11T16:51:36;1.30;99.90
13229;DHT22;6680;53.220;10.402;2024-01-11T16:54:07;1.30;99.90
13229;DHT22;6680;53.220;10.402;2024-01-11T16:56:35;1.30;99.90